createdAt,value
2017-10-12T00:02:08.335Z,83.00
2017-10-12T00:05:09.831Z,82.40
2017-10-12T00:08:12.148Z,83.40
2017-10-12T00:11:13.680Z,82.90
2017-10-12T00:14:15.138Z,81.60
2017-10-12T00:17:17.428Z,83.60
2017-10-12T00:20:18.967Z,84.00
2017-10-12T00:23:21.259Z,83.50
2017-10-12T00:26:22.722Z,82.70
2017-10-12T00:29:24.322Z,82.70
2017-10-12T00:32:26.643Z,83.50
2017-10-12T00:35:29.227Z,82.60
2017-10-12T00:38:30.762Z,82.00
2017-10-12T00:41:32.292Z,82.90
2017-10-12T00:44:35.011Z,84.50
2017-10-12T00:47:36.926Z,84.10
2017-10-12T00:50:38.680Z,85.30
2017-10-12T00:53:41.265Z,88.60
2017-10-12T00:56:43.694Z,90.00
2017-10-12T00:59:45.303Z,89.80
2017-10-12T01:02:47.610Z,90.70
2017-10-12T01:05:49.192Z,90.30
2017-10-12T01:08:50.713Z,90.80
2017-10-12T01:11:52.254Z,90.70
2017-10-12T01:14:54.546Z,91.50
2017-10-12T01:17:56.142Z,91.80
2017-10-12T01:20:57.719Z,91.40
2017-10-12T01:23:59.271Z,91.10
2017-10-12T01:27:01.600Z,91.80
2017-10-12T01:30:03.160Z,90.90
2017-10-12T01:33:04.738Z,90.90
2017-10-12T01:36:06.264Z,91.40
2017-10-12T01:39:07.818Z,91.50
2017-10-12T01:42:09.329Z,91.40
2017-10-12T01:45:11.622Z,92.40
2017-10-12T01:48:13.131Z,91.90
2017-10-12T01:51:14.767Z,91.90
2017-10-12T01:54:16.398Z,92.10
2017-10-12T01:57:17.950Z,92.20
2017-10-12T02:00:19.485Z,92.60
2017-10-12T02:03:21.003Z,92.50
2017-10-12T02:06:22.585Z,93.10
2017-10-12T02:09:24.840Z,93.20
2017-10-12T02:12:26.384Z,93.00
2017-10-12T02:15:27.931Z,92.60
2017-10-12T02:18:29.424Z,92.80
2017-10-12T02:21:31.766Z,93.20
2017-10-12T02:24:33.287Z,92.90
2017-10-12T02:27:34.837Z,92.80
2017-10-12T02:30:37.152Z,93.00
2017-10-12T02:33:38.728Z,92.80
2017-10-12T02:36:41.001Z,93.40
2017-10-12T02:39:43.244Z,93.30
2017-10-12T02:42:44.798Z,92.70
2017-10-12T02:45:46.346Z,92.40
2017-10-12T02:48:47.912Z,92.60
2017-10-12T02:51:49.494Z,93.00
2017-10-12T02:54:51.078Z,92.70
2017-10-12T02:57:52.637Z,92.60
2017-10-12T03:00:54.109Z,92.70
2017-10-12T03:03:55.695Z,92.70
2017-10-12T03:06:57.216Z,92.40
2017-10-12T03:09:58.733Z,92.60
2017-10-12T03:13:00.256Z,92.80
2017-10-12T03:16:01.816Z,92.60
2017-10-12T03:19:03.375Z,92.30
2017-10-12T03:22:04.925Z,92.20
2017-10-12T03:25:06.484Z,92.50
2017-10-12T03:28:08.064Z,92.30
2017-10-12T03:31:10.371Z,92.80
2017-10-12T03:34:11.958Z,92.60
2017-10-12T03:37:13.648Z,92.00
2017-10-12T03:40:15.920Z,92.60
2017-10-12T03:43:17.473Z,92.00
2017-10-12T03:46:19.122Z,91.80
2017-10-12T03:49:21.338Z,92.40
2017-10-12T03:52:22.877Z,92.10
2017-10-12T03:55:24.428Z,92.10
2017-10-12T03:58:25.889Z,91.50
2017-10-12T04:01:27.429Z,91.40
2017-10-12T04:04:28.945Z,91.00
2017-10-12T04:07:30.524Z,91.30
2017-10-12T04:10:33.297Z,91.50
2017-10-12T04:13:34.878Z,91.20
2017-10-12T04:16:36.364Z,91.20
2017-10-12T04:19:38.119Z,91.40
2017-10-12T04:22:39.739Z,91.00
2017-10-12T04:25:42.005Z,91.40
2017-10-12T04:28:44.347Z,91.20
2017-10-12T04:31:46.828Z,90.50
2017-10-12T04:34:48.379Z,90.90
2017-10-12T04:37:49.872Z,90.90
2017-10-12T04:40:51.395Z,90.90
2017-10-12T04:43:52.872Z,90.10
2017-10-12T04:46:54.390Z,90.60
2017-10-12T04:49:55.926Z,90.40
2017-10-12T04:52:57.388Z,90.40
2017-10-12T04:55:58.950Z,89.60
2017-10-12T04:59:00.464Z,90.20
2017-10-12T05:02:01.979Z,90.10
2017-10-12T05:05:04.572Z,90.60
2017-10-12T05:08:06.803Z,90.60
2017-10-12T05:11:08.321Z,90.00
2017-10-12T05:14:09.884Z,90.30
2017-10-12T05:17:11.396Z,89.70
2017-10-12T05:20:13.702Z,90.70
2017-10-12T05:23:15.190Z,90.40
2017-10-12T05:26:16.699Z,88.10
2017-10-12T05:29:18.219Z,86.60
2017-10-12T05:32:19.720Z,83.90
2017-10-12T05:35:21.198Z,80.70
2017-10-12T05:38:22.763Z,80.80
2017-10-12T05:41:24.317Z,81.00
2017-10-12T05:44:25.889Z,80.70
2017-10-12T05:47:28.139Z,82.30
2017-10-12T05:50:29.679Z,81.80
2017-10-12T05:53:31.219Z,83.00
2017-10-12T05:56:32.908Z,82.00
2017-10-12T05:59:34.421Z,82.00
2017-10-12T06:02:35.912Z,82.60
2017-10-12T06:05:37.393Z,82.10
2017-10-12T06:08:38.823Z,82.10
2017-10-12T06:11:40.298Z,82.40
2017-10-12T06:14:42.573Z,83.80
2017-10-12T06:17:44.062Z,81.80
2017-10-12T06:20:45.561Z,82.50
2017-10-12T06:23:47.027Z,83.40
2017-10-12T06:26:48.497Z,81.90
2017-10-12T06:29:49.983Z,81.00
2017-10-12T06:32:51.505Z,82.40
2017-10-12T06:35:53.777Z,83.40
2017-10-12T06:38:56.036Z,83.00
2017-10-12T06:41:57.532Z,83.80
2017-10-12T06:44:59.122Z,82.90
2017-10-12T06:48:00.721Z,81.50
2017-10-12T06:51:03.163Z,83.20
2017-10-12T06:54:05.405Z,83.50
2017-10-12T06:57:06.886Z,81.30
2017-10-12T07:00:08.368Z,82.10
2017-10-12T07:03:10.690Z,83.90
2017-10-12T07:06:12.291Z,82.40
2017-10-12T07:09:14.497Z,83.40
2017-10-12T07:12:15.997Z,83.40
2017-10-12T07:15:18.136Z,84.10
2017-10-12T07:18:19.787Z,84.10
2017-10-12T07:21:32.018Z,84.00
2017-10-12T07:24:33.592Z,83.80
2017-10-12T07:27:40.412Z,83.60
2017-10-12T07:30:41.880Z,83.90
2017-10-12T07:33:43.364Z,84.30
2017-10-12T07:36:44.841Z,83.10
2017-10-12T07:39:46.367Z,84.20
2017-10-12T07:42:48.010Z,83.30
2017-10-12T07:45:49.504Z,83.50
2017-10-12T07:48:51.763Z,84.50
2017-10-12T07:51:53.288Z,85.10
2017-10-12T07:58:03.068Z,84.40
2017-10-12T08:01:04.617Z,83.10
2017-10-12T08:04:06.196Z,83.00
2017-10-12T08:07:07.795Z,84.10
2017-10-12T08:10:10.316Z,83.40
2017-10-12T08:16:20.151Z,85.40
2017-10-12T08:19:21.683Z,84.50
2017-10-12T08:22:23.359Z,84.50
2017-10-12T08:25:24.868Z,84.20
2017-10-12T08:28:26.371Z,83.20
2017-10-12T08:31:27.947Z,82.40
2017-10-12T08:34:29.551Z,84.70
2017-10-12T08:37:31.849Z,84.40
2017-10-12T08:40:33.405Z,82.90
2017-10-12T08:43:34.973Z,82.80
2017-10-12T08:46:36.533Z,83.50
2017-10-12T08:49:38.194Z,82.40
2017-10-12T08:52:39.791Z,82.80
2017-10-12T08:55:42.150Z,83.20
2017-10-12T08:58:44.572Z,83.50
2017-10-12T09:01:46.148Z,83.00
2017-10-12T09:04:47.829Z,82.00
2017-10-12T09:07:49.548Z,82.20
2017-10-12T09:10:52.419Z,83.00
2017-10-12T09:13:54.032Z,82.70
2017-10-12T09:16:55.627Z,82.60
2017-10-12T09:19:57.240Z,81.50
2017-10-12T09:22:58.837Z,81.30
2017-10-12T09:26:08.485Z,80.10
2017-10-12T09:29:10.629Z,83.00
2017-10-12T09:32:12.944Z,82.40
2017-10-12T09:35:14.594Z,82.50
2017-10-12T09:38:19.138Z,82.30
2017-10-12T09:41:20.789Z,80.50
2017-10-12T09:44:22.420Z,83.00
2017-10-12T09:47:26.126Z,80.70
2017-10-12T09:50:41.185Z,82.60
2017-10-12T09:53:43.617Z,82.50
2017-10-12T09:56:54.943Z,80.80
2017-10-12T09:59:56.455Z,80.90
2017-10-12T10:02:58.044Z,80.90
2017-10-12T10:05:59.607Z,79.50
2017-10-12T10:09:01.865Z,79.70
2017-10-12T10:12:03.475Z,79.50
2017-10-12T10:15:04.975Z,79.50
2017-10-12T10:18:06.550Z,79.30
2017-10-12T10:21:08.738Z,78.20
2017-10-12T10:24:10.193Z,77.70
2017-10-12T10:27:11.734Z,76.10
2017-10-12T10:30:13.897Z,76.90
2017-10-12T10:33:16.181Z,76.70
2017-10-12T10:36:17.721Z,76.40
2017-10-12T10:39:19.198Z,74.60
2017-10-12T10:42:20.653Z,76.70
2017-10-12T10:45:22.177Z,76.30
2017-10-12T10:48:24.446Z,74.80
2017-10-12T10:51:25.846Z,73.40
2017-10-12T10:54:27.350Z,73.60
2017-10-12T10:57:29.557Z,72.60
2017-10-12T11:00:31.001Z,71.00
2017-10-12T11:03:32.542Z,72.10
2017-10-12T11:06:34.730Z,73.80
2017-10-12T11:09:36.124Z,73.40
2017-10-12T11:12:37.561Z,73.50
2017-10-12T11:15:38.948Z,74.20
2017-10-12T11:18:40.409Z,71.20
2017-10-12T11:21:42.648Z,71.90
2017-10-12T11:24:44.187Z,71.20
2017-10-12T11:27:45.671Z,71.20
2017-10-12T11:30:47.182Z,71.10
2017-10-12T11:33:48.703Z,69.80
2017-10-12T11:36:50.863Z,70.80
2017-10-12T11:39:53.100Z,70.10
2017-10-12T11:42:54.495Z,70.00
2017-10-12T11:45:56.729Z,70.00
2017-10-12T11:48:58.256Z,69.10
2017-10-12T11:51:59.699Z,69.40
2017-10-12T11:55:01.127Z,71.00
2017-10-12T11:58:02.579Z,71.60
2017-10-12T12:01:04.091Z,71.00
2017-10-12T12:04:05.491Z,70.40
2017-10-12T12:07:07.687Z,70.90
2017-10-12T12:10:09.098Z,69.50
2017-10-12T12:13:11.268Z,70.80
2017-10-12T12:16:12.624Z,68.50
2017-10-12T12:19:14.829Z,69.60
2017-10-12T12:22:16.176Z,68.00
2017-10-12T12:25:18.318Z,68.90
2017-10-12T12:28:20.440Z,68.60
2017-10-12T12:31:21.810Z,67.50
2017-10-12T12:34:23.173Z,67.70
2017-10-12T12:37:31.577Z,70.20
2017-10-12T12:40:33.004Z,70.20
2017-10-12T12:43:34.356Z,69.50
2017-10-12T12:46:35.804Z,70.10
2017-10-12T12:49:37.974Z,71.40
2017-10-12T12:52:40.112Z,69.40
2017-10-12T12:55:41.533Z,68.30
2017-10-12T12:58:43.661Z,69.10
2017-10-12T13:01:45.044Z,69.40
2017-10-12T13:04:46.782Z,67.60
2017-10-12T13:07:48.266Z,67.10
2017-10-12T13:10:49.658Z,66.40
2017-10-12T13:13:51.111Z,66.80
2017-10-12T13:16:52.664Z,66.00
2017-10-12T13:19:54.154Z,64.40
2017-10-12T13:22:55.607Z,64.30
2017-10-12T13:25:57.032Z,64.30
2017-10-12T13:28:58.388Z,64.30
2017-10-12T13:31:59.798Z,65.40
2017-10-12T13:35:01.896Z,63.90
2017-10-12T13:38:03.323Z,62.50
2017-10-12T13:41:05.122Z,64.70
2017-10-12T13:44:06.533Z,64.90
2017-10-12T13:47:08.680Z,66.20
2017-10-12T13:50:10.115Z,64.20
2017-10-12T13:53:11.514Z,65.00
2017-10-12T13:56:13.649Z,65.00
2017-10-12T13:59:15.237Z,64.20
2017-10-12T14:02:17.393Z,65.50
2017-10-12T14:05:19.621Z,63.60
2017-10-12T14:08:21.117Z,63.00
2017-10-12T14:11:23.329Z,64.60
2017-10-12T14:14:24.828Z,64.10
2017-10-12T14:17:26.236Z,64.40
2017-10-12T14:20:27.628Z,63.20
2017-10-12T14:23:29.060Z,64.70
2017-10-12T14:26:30.630Z,65.90
2017-10-12T14:29:32.158Z,65.80
2017-10-12T14:32:33.634Z,63.10
2017-10-12T14:35:35.144Z,62.70
2017-10-12T14:38:36.553Z,63.60
2017-10-12T14:41:38.877Z,66.30
2017-10-12T14:44:40.376Z,65.80
2017-10-12T14:47:42.599Z,66.80
2017-10-12T14:50:44.109Z,66.60
2017-10-12T14:53:45.638Z,65.70
2017-10-12T14:56:47.105Z,66.00
2017-10-12T14:59:49.299Z,68.00
2017-10-12T15:02:50.796Z,68.00
2017-10-12T15:05:52.979Z,68.80
2017-10-12T15:08:54.404Z,67.40
2017-10-12T15:11:55.898Z,66.70
2017-10-12T15:14:58.114Z,68.20
2017-10-12T15:17:59.782Z,66.60
2017-10-12T15:21:01.293Z,67.90
2017-10-12T15:24:02.875Z,68.20
2017-10-12T15:27:04.398Z,67.30
2017-10-12T15:30:06.766Z,69.00
2017-10-12T15:33:08.329Z,70.60
2017-10-12T15:36:10.671Z,70.60
2017-10-12T15:39:12.360Z,70.00
2017-10-12T15:42:14.338Z,68.90
2017-10-12T15:45:16.372Z,68.30
2017-10-12T15:48:18.663Z,69.50
2017-10-12T15:51:20.200Z,69.00
2017-10-12T15:54:22.046Z,69.20
2017-10-12T15:57:24.363Z,70.40
2017-10-12T16:03:35.150Z,69.00
2017-10-12T16:06:37.400Z,70.70
2017-10-12T16:09:38.886Z,69.10
2017-10-12T16:12:40.491Z,69.00
2017-10-12T16:15:43.361Z,69.70
2017-10-12T16:18:45.060Z,69.40
2017-10-12T16:21:48.739Z,72.20
2017-10-12T16:24:51.160Z,71.50
2017-10-12T16:27:53.221Z,70.60
2017-10-12T16:30:55.235Z,71.00
2017-10-12T16:33:56.887Z,71.50
2017-10-12T16:36:59.479Z,72.40
2017-10-12T16:40:02.182Z,74.10
2017-10-12T16:43:05.180Z,76.40
2017-10-12T16:46:07.918Z,75.80
2017-10-12T16:49:11.184Z,75.40
2017-10-12T16:55:57.060Z,77.80
2017-10-12T16:58:58.892Z,77.00
2017-10-12T17:02:01.574Z,76.30
2017-10-12T17:05:05.056Z,76.70
2017-10-12T17:08:08.148Z,77.40
2017-10-12T17:11:13.159Z,76.60
2017-10-12T17:14:14.850Z,77.90
2017-10-12T17:17:17.532Z,77.90
2017-10-12T17:20:19.245Z,77.60
2017-10-12T17:23:52.523Z,78.50
2017-10-12T17:26:24.773Z,78.30
2017-10-12T17:29:27.051Z,77.30
2017-10-12T17:32:31.058Z,78.70
2017-10-12T17:35:32.681Z,78.70
2017-10-12T17:38:34.367Z,77.20
2017-10-12T17:41:36.262Z,78.00
2017-10-12T17:44:39.053Z,78.70
2017-10-12T17:50:50.171Z,77.20
2017-10-12T17:53:52.879Z,78.70
2017-10-12T17:56:54.543Z,76.80
2017-10-12T17:59:56.118Z,78.00
2017-10-12T18:02:58.324Z,77.50
2017-10-12T18:06:05.866Z,78.80
2017-10-12T18:09:07.535Z,77.90
2017-10-12T18:12:24.086Z,77.90
2017-10-12T18:15:10.772Z,78.10
2017-10-12T18:18:12.936Z,77.70
2017-10-12T18:21:14.534Z,77.80
2017-10-12T18:24:16.855Z,79.30
2017-10-12T18:27:18.409Z,78.60
2017-10-12T18:30:19.884Z,76.80
2017-10-12T18:33:22.157Z,79.70
2017-10-12T18:36:23.756Z,79.10
2017-10-12T18:39:25.336Z,77.70
2017-10-12T18:42:26.886Z,80.00
2017-10-12T18:45:29.199Z,79.60
2017-10-12T18:48:30.721Z,77.70
2017-10-12T18:51:32.227Z,78.70
2017-10-12T18:54:33.808Z,78.80
2017-10-12T18:57:35.400Z,78.40
2017-10-12T19:00:36.916Z,79.80
2017-10-12T19:03:38.458Z,77.70
2017-10-12T19:06:40.754Z,79.50
2017-10-12T19:09:42.305Z,78.60
2017-10-12T19:12:43.854Z,80.10
2017-10-12T19:15:45.492Z,80.30
2017-10-12T19:18:47.042Z,79.30
2017-10-12T19:21:48.684Z,78.00
2017-10-12T19:24:52.574Z,79.40
2017-10-12T19:27:54.097Z,79.50
2017-10-12T19:30:56.635Z,79.80
2017-10-12T19:33:58.892Z,80.00
2017-10-12T19:37:00.450Z,78.20
2017-10-12T19:40:02.034Z,79.30
2017-10-12T19:43:03.628Z,79.30
2017-10-12T19:46:05.154Z,79.10
2017-10-12T19:49:06.621Z,79.30
2017-10-12T19:52:08.179Z,78.40
2017-10-12T19:55:09.704Z,79.40
2017-10-12T19:58:11.213Z,79.70
2017-10-12T20:01:12.799Z,79.80
2017-10-12T20:04:14.374Z,78.90
2017-10-12T20:07:15.920Z,79.30
2017-10-12T20:10:17.461Z,79.20
2017-10-12T20:13:19.748Z,80.60
2017-10-12T20:16:21.214Z,80.80
2017-10-12T20:19:22.714Z,80.60
2017-10-12T20:22:24.438Z,78.80
2017-10-12T20:25:25.987Z,78.70
2017-10-12T20:28:27.489Z,79.80
2017-10-12T20:34:31.393Z,79.10
2017-10-12T20:37:34.654Z,78.90
2017-10-12T20:40:36.215Z,79.80
2017-10-12T20:43:37.734Z,78.30
2017-10-12T20:46:39.229Z,79.40
2017-10-12T20:49:41.039Z,77.40
2017-10-12T20:52:42.531Z,79.20
2017-10-12T20:55:43.980Z,78.70
2017-10-12T20:58:45.546Z,78.90
2017-10-12T21:01:47.069Z,77.60
2017-10-12T21:04:49.318Z,78.60
2017-10-12T21:07:50.983Z,77.80
2017-10-12T21:10:52.492Z,77.40
2017-10-12T21:13:53.977Z,77.50
2017-10-12T21:16:55.423Z,78.90
2017-10-12T21:19:56.997Z,78.90
2017-10-12T21:22:58.543Z,79.10
2017-10-12T21:26:00.121Z,79.30
2017-10-12T21:29:02.393Z,79.40
2017-10-12T21:32:04.570Z,80.30
2017-10-12T21:35:06.828Z,80.80
2017-10-12T21:38:08.283Z,81.60
2017-10-12T21:44:19.428Z,81.80
2017-10-12T21:47:20.883Z,80.80
2017-10-12T21:50:22.430Z,80.90
2017-10-12T21:53:23.912Z,79.50
2017-10-12T21:56:25.433Z,80.10
2017-10-12T21:59:26.911Z,79.70
2017-10-12T22:02:28.475Z,80.40
2017-10-12T22:05:30.029Z,79.30
2017-10-12T22:08:31.504Z,80.00
2017-10-12T22:11:33.753Z,81.80
2017-10-12T22:14:35.256Z,79.30
2017-10-12T22:17:36.779Z,81.90
2017-10-12T22:20:38.299Z,80.90
2017-10-12T22:23:39.843Z,81.40
2017-10-12T22:26:41.354Z,80.60
2017-10-12T22:29:42.969Z,80.30
2017-10-12T22:32:44.947Z,80.70
2017-10-12T22:35:46.412Z,81.60
2017-10-12T22:38:48.719Z,81.50
2017-10-12T22:41:50.935Z,80.70
2017-10-12T22:44:52.420Z,80.00
2017-10-12T22:47:54.691Z,80.90
2017-10-12T22:50:56.219Z,79.10
2017-10-12T22:53:57.779Z,81.20
2017-10-12T22:56:59.488Z,80.50
2017-10-12T23:03:09.897Z,81.50
2017-10-12T23:06:11.458Z,81.10
2017-10-12T23:09:13.001Z,80.60
2017-10-12T23:12:14.522Z,81.60
2017-10-12T23:15:16.067Z,79.60
2017-10-12T23:18:18.346Z,81.20
2017-10-12T23:21:20.583Z,80.60
2017-10-12T23:24:22.102Z,79.40
2017-10-12T23:27:24.456Z,79.70
2017-10-12T23:30:25.986Z,80.40
2017-10-12T23:33:27.531Z,80.80
2017-10-12T23:36:29.018Z,80.40
2017-10-12T23:39:30.507Z,79.80
2017-10-12T23:42:32.064Z,80.50
2017-10-12T23:45:33.581Z,80.30
2017-10-12T23:48:35.095Z,80.60
2017-10-12T23:51:36.586Z,79.60
2017-10-12T23:54:38.075Z,80.10
2017-10-12T23:57:39.568Z,80.80
